sensor_id;sensor_type;location;lat;lon;timestamp;temperature;humidity
64951;DHT22;51482;47.014;7.652;2023-07-13T00:01:28;18.40;99.90
64951;DHT22;51482;47.014;7.652;2023-07-13T00:03:55;18.50;99.90
64951;DHT22;51482;47.014;7.652;2023-07-13T00:06:21;19.20;99.90
64951;DHT22;51482;47.014;7.652;2023-07-13T00:08:47;19.00;99.90
64951;DHT22;51482;47.014;7.652;2023-07-13T00:11:15;18.50;99.90
64951;DHT22;51482;47.014;7.652;2023-07-13T00:13:41;18.60;99.90
64951;DHT22;51482;47.014;7.652;2023-07-13T00:16:09;18.40;99.90
64951;DHT22;51482;47.014;7.652;2023-07-13T00:18:35;18.20;99.90
64951;DHT22;51482;47.014;7.652;2023-07-13T00:21:00;18.50;99.90
64951;DHT22;51482;47.014;7.652;2023-07-13T00:23:35;18.20;99.90
64951;DHT22;51482;47.014;7.652;2023-07-13T00:26:02;18.50;99.90
64951;DHT22;51482;47.014;7.652;2023-07-13T00:28:28;18.50;99.90
64951;DHT22;51482;47.014;7.652;2023-07-13T00:30:53;18.40;99.90
64951;DHT22;51482;47.014;7.652;2023-07-13T00:33:19;18.50;99.90
64951;DHT22;51482;47.014;7.652;2023-07-13T00:35:45;18.20;99.90
64951;DHT22;51482;47.014;7.652;2023-07-13T00:38:10;17.70;99.90
64951;DHT22;51482;47.014;7.652;2023-07-13T00:40:36;18.20;99.90
64951;DHT22;51482;47.014;7.652;2023-07-13T00:43:02;18.20;99.90
64951;DHT22;51482;47.014;7.652;2023-07-13T00:47:55;18.20;99.90
64951;DHT22;51482;47.014;7.652;2023-07-13T00:50:23;18.20;99.90
64951;DHT22;51482;47.014;7.652;2023-07-13T00:52:53;18.20;99.90
64951;DHT22;51482;47.014;7.652;2023-07-13T00:55:21;18.20;99.90
64951;DHT22;51482;47.014;7.652;2023-07-13T00:57:47;18.20;99.90
64951;DHT22;51482;47.014;7.652;2023-07-13T01:00:13;18.30;99.90
64951;DHT22;51482;47.014;7.652;2023-07-13T01:02:42;18.30;99.90
64951;DHT22;51482;47.014;7.652;2023-07-13T01:05:17;18.20;99.90
64951;DHT22;51482;47.014;7.652;2023-07-13T01:07:44;18.30;99.90
64951;DHT22;51482;47.014;7.652;2023-07-13T01:10:12;18.30;99.90
64951;DHT22;51482;47.014;7.652;2023-07-13T01:12:37;18.30;99.90
64951;DHT22;51482;47.014;7.652;2023-07-13T01:15:03;18.30;99.90
64951;DHT22;51482;47.014;7.652;2023-07-13T01:17:31;18.30;99.90
64951;DHT22;51482;47.014;7.652;2023-07-13T01:19:58;18.30;99.90
64951;DHT22;51482;47.014;7.652;2023-07-13T01:22:25;18.30;99.90
64951;DHT22;51482;47.014;7.652;2023-07-13T01:24:53;18.50;99.90
64951;DHT22;51482;47.014;7.652;2023-07-13T01:27:24;18.40;99.90
64951;DHT22;51482;47.014;7.652;2023-07-13T01:29:50;18.30;99.90
64951;DHT22;51482;47.014;7.652;2023-07-13T01:32:20;18.30;99.90
64951;DHT22;51482;47.014;7.652;2023-07-13T01:34:50;18.40;99.90
64951;DHT22;51482;47.014;7.652;2023-07-13T01:37:16;18.40;99.90
64951;DHT22;51482;47.014;7.652;2023-07-13T01:39:42;18.40;99.90
64951;DHT22;51482;47.014;7.652;2023-07-13T01:42:07;18.30;99.90
64951;DHT22;51482;47.014;7.652;2023-07-13T01:44:33;18.30;99.90
64951;DHT22;51482;47.014;7.652;2023-07-13T01:46:58;18.20;99.90
64951;DHT22;51482;47.014;7.652;2023-07-13T01:49:24;18.20;99.90
64951;DHT22;51482;47.014;7.652;2023-07-13T01:51:49;17.80;99.90
64951;DHT22;51482;47.014;7.652;2023-07-13T01:54:15;18.40;99.90
64951;DHT22;51482;47.014;7.652;2023-07-13T01:56:41;18.10;99.90
64951;DHT22;51482;47.014;7.652;2023-07-13T01:59:07;18.10;99.90
64951;DHT22;51482;47.014;7.652;2023-07-13T02:01:33;18.10;99.90
64951;DHT22;51482;47.014;7.652;2023-07-13T02:03:58;18.20;99.90
64951;DHT22;51482;47.014;7.652;2023-07-13T02:06:24;18.20;99.90
64951;DHT22;51482;47.014;7.652;2023-07-13T02:08:49;18.20;99.90
64951;DHT22;51482;47.014;7.652;2023-07-13T02:11:15;18.20;99.90
64951;DHT22;51482;47.014;7.652;2023-07-13T02:13:40;18.10;99.90
64951;DHT22;51482;47.014;7.652;2023-07-13T02:16:06;18.20;99.90
64951;DHT22;51482;47.014;7.652;2023-07-13T02:18:32;18.20;99.90
64951;DHT22;51482;47.014;7.652;2023-07-13T02:20:57;17.60;99.90
64951;DHT22;51482;47.014;7.652;2023-07-13T02:23:23;17.90;99.90
64951;DHT22;51482;47.014;7.652;2023-07-13T02:25:49;17.90;99.90
64951;DHT22;51482;47.014;7.652;2023-07-13T02:28:14;17.80;99.90
64951;DHT22;51482;47.014;7.652;2023-07-13T02:30:40;17.80;99.90
64951;DHT22;51482;47.014;7.652;2023-07-13T02:33:06;18.20;99.90
64951;DHT22;51482;47.014;7.652;2023-07-13T02:35:31;17.70;99.90
64951;DHT22;51482;47.014;7.652;2023-07-13T02:37:57;17.70;99.90
64951;DHT22;51482;47.014;7.652;2023-07-13T02:40:23;17.70;99.90
64951;DHT22;51482;47.014;7.652;2023-07-13T02:42:48;17.70;99.90
64951;DHT22;51482;47.014;7.652;2023-07-13T02:45:14;17.70;99.90
64951;DHT22;51482;47.014;7.652;2023-07-13T02:47:41;17.70;99.90
64951;DHT22;51482;47.014;7.652;2023-07-13T02:50:07;18.00;99.90
64951;DHT22;51482;47.014;7.652;2023-07-13T02:52:33;17.70;99.90
64951;DHT22;51482;47.014;7.652;2023-07-13T02:54:58;17.70;99.90
64951;DHT22;51482;47.014;7.652;2023-07-13T02:57:24;17.70;99.90
64951;DHT22;51482;47.014;7.652;2023-07-13T02:59:49;17.20;99.90
64951;DHT22;51482;47.014;7.652;2023-07-13T03:02:15;17.90;99.90
64951;DHT22;51482;47.014;7.652;2023-07-13T03:04:41;18.50;99.90
64951;DHT22;51482;47.014;7.652;2023-07-13T03:07:07;17.80;99.90
64951;DHT22;51482;47.014;7.652;2023-07-13T03:09:34;17.90;99.90
64951;DHT22;51482;47.014;7.652;2023-07-13T03:12:00;17.90;99.90
64951;DHT22;51482;47.014;7.652;2023-07-13T03:14:26;18.20;99.90
64951;DHT22;51482;47.014;7.652;2023-07-13T03:16:51;17.90;99.90
64951;DHT22;51482;47.014;7.652;2023-07-13T03:19:17;18.20;99.90
64951;DHT22;51482;47.014;7.652;2023-07-13T03:21:43;17.90;99.90
64951;DHT22;51482;47.014;7.652;2023-07-13T03:24:09;17.90;99.90
64951;DHT22;51482;47.014;7.652;2023-07-13T03:26:35;17.80;99.90
64951;DHT22;51482;47.014;7.652;2023-07-13T03:29:00;17.70;99.90
64951;DHT22;51482;47.014;7.652;2023-07-13T03:31:29;17.90;99.90
64951;DHT22;51482;47.014;7.652;2023-07-13T03:33:55;17.70;99.90
64951;DHT22;51482;47.014;7.652;2023-07-13T03:36:26;17.70;99.90
64951;DHT22;51482;47.014;7.652;2023-07-13T03:38:54;18.00;99.90
64951;DHT22;51482;47.014;7.652;2023-07-13T03:41:22;17.70;99.90
64951;DHT22;51482;47.014;7.652;2023-07-13T03:43:48;17.80;99.90
64951;DHT22;51482;47.014;7.652;2023-07-13T03:46:15;17.70;99.90
64951;DHT22;51482;47.014;7.652;2023-07-13T03:48:43;17.80;99.90
64951;DHT22;51482;47.014;7.652;2023-07-13T03:51:09;17.70;99.90
64951;DHT22;51482;47.014;7.652;2023-07-13T03:53:38;17.80;99.90
64951;DHT22;51482;47.014;7.652;2023-07-13T03:56:04;17.90;99.90
64951;DHT22;51482;47.014;7.652;2023-07-13T03:58:33;18.30;99.90
64951;DHT22;51482;47.014;7.652;2023-07-13T04:00:59;18.50;99.90
64951;DHT22;51482;47.014;7.652;2023-07-13T04:03:26;18.30;99.90
64951;DHT22;51482;47.014;7.652;2023-07-13T04:05:53;18.40;99.90
64951;DHT22;51482;47.014;7.652;2023-07-13T04:08:19;18.40;99.90
64951;DHT22;51482;47.014;7.652;2023-07-13T04:10:45;18.80;99.90
64951;DHT22;51482;47.014;7.652;2023-07-13T04:13:10;18.60;99.90
64951;DHT22;51482;47.014;7.652;2023-07-13T04:15:36;18.10;99.90
64951;DHT22;51482;47.014;7.652;2023-07-13T04:18:01;18.10;99.90
64951;DHT22;51482;47.014;7.652;2023-07-13T04:20:29;17.50;99.90
64951;DHT22;51482;47.014;7.652;2023-07-13T04:22:55;17.90;99.90
64951;DHT22;51482;47.014;7.652;2023-07-13T04:25:21;17.90;99.90
64951;DHT22;51482;47.014;7.652;2023-07-13T04:27:46;17.80;99.90
64951;DHT22;51482;47.014;7.652;2023-07-13T04:30:12;17.80;99.90
64951;DHT22;51482;47.014;7.652;2023-07-13T04:32:38;18.00;99.90
64951;DHT22;51482;47.014;7.652;2023-07-13T04:35:04;18.00;99.90
64951;DHT22;51482;47.014;7.652;2023-07-13T04:37:29;18.20;99.90
64951;DHT22;51482;47.014;7.652;2023-07-13T04:39:55;18.20;99.90
64951;DHT22;51482;47.014;7.652;2023-07-13T04:42:21;18.30;99.90
64951;DHT22;51482;47.014;7.652;2023-07-13T04:44:48;18.40;99.90
64951;DHT22;51482;47.014;7.652;2023-07-13T04:47:14;18.40;99.90
64951;DHT22;51482;47.014;7.652;2023-07-13T04:49:39;17.80;99.90
64951;DHT22;51482;47.014;7.652;2023-07-13T04:52:06;18.40;99.90
64951;DHT22;51482;47.014;7.652;2023-07-13T04:54:35;18.30;99.90
64951;DHT22;51482;47.014;7.652;2023-07-13T04:57:03;17.80;99.90
64951;DHT22;51482;47.014;7.652;2023-07-13T04:59:32;18.50;99.90
64951;DHT22;51482;47.014;7.652;2023-07-13T05:01:57;18.50;99.90
64951;DHT22;51482;47.014;7.652;2023-07-13T05:04:23;18.30;99.90
64951;DHT22;51482;47.014;7.652;2023-07-13T05:06:48;18.70;99.90
64951;DHT22;51482;47.014;7.652;2023-07-13T05:09:14;18.50;99.90
64951;DHT22;51482;47.014;7.652;2023-07-13T05:11:39;18.70;99.90
64951;DHT22;51482;47.014;7.652;2023-07-13T05:14:05;18.80;99.90
64951;DHT22;51482;47.014;7.652;2023-07-13T05:16:30;18.70;99.90
64951;DHT22;51482;47.014;7.652;2023-07-13T05:18:57;18.70;99.90
64951;DHT22;51482;47.014;7.652;2023-07-13T05:21:23;18.50;99.90
64951;DHT22;51482;47.014;7.652;2023-07-13T05:23:49;18.50;99.90
64951;DHT22;51482;47.014;7.652;2023-07-13T05:26:15;18.50;99.90
64951;DHT22;51482;47.014;7.652;2023-07-13T05:28:40;18.60;99.90
64951;DHT22;51482;47.014;7.652;2023-07-13T05:31:08;18.60;99.90
64951;DHT22;51482;47.014;7.652;2023-07-13T05:33:34;18.60;99.90
64951;DHT22;51482;47.014;7.652;2023-07-13T05:35:59;18.80;99.90
64951;DHT22;51482;47.014;7.652;2023-07-13T05:38:26;18.30;99.90
64951;DHT22;51482;47.014;7.652;2023-07-13T05:40:54;18.20;99.90
64951;DHT22;51482;47.014;7.652;2023-07-13T05:43:20;18.20;99.90
64951;DHT22;51482;47.014;7.652;2023-07-13T05:45:46;19.00;99.90
64951;DHT22;51482;47.014;7.652;2023-07-13T05:48:12;18.30;99.90
64951;DHT22;51482;47.014;7.652;2023-07-13T05:50:37;18.30;99.90
64951;DHT22;51482;47.014;7.652;2023-07-13T05:53:03;18.30;99.90
64951;DHT22;51482;47.014;7.652;2023-07-13T05:55:29;18.40;99.90
64951;DHT22;51482;47.014;7.652;2023-07-13T05:57:54;18.50;99.90
64951;DHT22;51482;47.014;7.652;2023-07-13T06:00:20;18.90;99.90
64951;DHT22;51482;47.014;7.652;2023-07-13T06:02:45;18.60;99.90
64951;DHT22;51482;47.014;7.652;2023-07-13T06:05:11;18.60;99.90
64951;DHT22;51482;47.014;7.652;2023-07-13T06:07:37;18.50;99.90
64951;DHT22;51482;47.014;7.652;2023-07-13T06:10:03;18.60;99.90
64951;DHT22;51482;47.014;7.652;2023-07-13T06:12:29;18.60;99.90
64951;DHT22;51482;47.014;7.652;2023-07-13T06:14:54;18.60;99.90
64951;DHT22;51482;47.014;7.652;2023-07-13T06:17:20;18.60;99.90
64951;DHT22;51482;47.014;7.652;2023-07-13T06:19:45;18.50;99.90
64951;DHT22;51482;47.014;7.652;2023-07-13T06:22:11;18.50;99.90
64951;DHT22;51482;47.014;7.652;2023-07-13T06:24:36;18.50;99.90
64951;DHT22;51482;47.014;7.652;2023-07-13T06:27:02;18.70;99.90
64951;DHT22;51482;47.014;7.652;2023-07-13T06:29:28;18.60;99.90
64951;DHT22;51482;47.014;7.652;2023-07-13T06:31:53;18.70;99.90
64951;DHT22;51482;47.014;7.652;2023-07-13T06:34:19;18.80;99.90
64951;DHT22;51482;47.014;7.652;2023-07-13T06:36:45;18.80;99.90
64951;DHT22;51482;47.014;7.652;2023-07-13T06:39:10;18.90;99.90
64951;DHT22;51482;47.014;7.652;2023-07-13T06:41:36;19.00;99.90
64951;DHT22;51482;47.014;7.652;2023-07-13T06:44:03;19.40;99.90
64951;DHT22;51482;47.014;7.652;2023-07-13T06:46:29;19.00;99.90
64951;DHT22;51482;47.014;7.652;2023-07-13T06:48:55;19.00;99.90
64951;DHT22;51482;47.014;7.652;2023-07-13T06:51:21;19.00;99.90
64951;DHT22;51482;47.014;7.652;2023-07-13T06:53:47;19.20;99.90
64951;DHT22;51482;47.014;7.652;2023-07-13T06:56:12;18.90;99.90
64951;DHT22;51482;47.014;7.652;2023-07-13T06:58:38;18.80;99.90
64951;DHT22;51482;47.014;7.652;2023-07-13T07:01:05;18.80;99.90
64951;DHT22;51482;47.014;7.652;2023-07-13T07:03:30;18.80;99.90
64951;DHT22;51482;47.014;7.652;2023-07-13T07:06:18;18.80;99.90
64951;DHT22;51482;47.014;7.652;2023-07-13T07:08:44;18.90;99.90
64951;DHT22;51482;47.014;7.652;2023-07-13T07:11:13;19.00;99.90
64951;DHT22;51482;47.014;7.652;2023-07-13T07:13:39;19.10;99.90
64951;DHT22;51482;47.014;7.652;2023-07-13T07:16:04;18.80;99.90
64951;DHT22;51482;47.014;7.652;2023-07-13T07:18:30;18.90;99.90
64951;DHT22;51482;47.014;7.652;2023-07-13T07:20:56;18.30;99.90
64951;DHT22;51482;47.014;7.652;2023-07-13T07:23:22;19.00;99.90
64951;DHT22;51482;47.014;7.652;2023-07-13T07:25:47;19.00;99.90
64951;DHT22;51482;47.014;7.652;2023-07-13T07:28:15;19.30;99.90
64951;DHT22;51482;47.014;7.652;2023-07-13T07:30:44;19.30;99.90
64951;DHT22;51482;47.014;7.652;2023-07-13T07:33:10;18.90;99.90
64951;DHT22;51482;47.014;7.652;2023-07-13T07:35:35;19.00;99.90
64951;DHT22;51482;47.014;7.652;2023-07-13T07:38:01;19.00;99.90
64951;DHT22;51482;47.014;7.652;2023-07-13T07:40:26;19.00;99.90
64951;DHT22;51482;47.014;7.652;2023-07-13T07:42:52;19.00;99.90
64951;DHT22;51482;47.014;7.652;2023-07-13T07:45:18;19.00;99.90
64951;DHT22;51482;47.014;7.652;2023-07-13T07:47:44;19.00;99.90
64951;DHT22;51482;47.014;7.652;2023-07-13T07:50:10;19.10;99.90
64951;DHT22;51482;47.014;7.652;2023-07-13T07:52:36;19.30;99.90
64951;DHT22;51482;47.014;7.652;2023-07-13T07:55:01;19.20;99.90
64951;DHT22;51482;47.014;7.652;2023-07-13T07:57:27;19.30;99.90
64951;DHT22;51482;47.014;7.652;2023-07-13T07:59:52;19.30;99.90
64951;DHT22;51482;47.014;7.652;2023-07-13T08:02:18;19.30;99.90
64951;DHT22;51482;47.014;7.652;2023-07-13T08:04:43;19.20;99.90
64951;DHT22;51482;47.014;7.652;2023-07-13T08:07:09;19.40;99.90
64951;DHT22;51482;47.014;7.652;2023-07-13T08:09:34;19.50;99.90
64951;DHT22;51482;47.014;7.652;2023-07-13T08:12:00;19.60;99.90
64951;DHT22;51482;47.014;7.652;2023-07-13T08:14:25;19.70;99.90
64951;DHT22;51482;47.014;7.652;2023-07-13T08:16:51;19.80;99.90
64951;DHT22;51482;47.014;7.652;2023-07-13T08:19:16;19.80;99.90
64951;DHT22;51482;47.014;7.652;2023-07-13T08:21:42;19.90;99.90
64951;DHT22;51482;47.014;7.652;2023-07-13T08:24:08;19.90;99.90
64951;DHT22;51482;47.014;7.652;2023-07-13T08:26:34;19.80;99.90
64951;DHT22;51482;47.014;7.652;2023-07-13T08:29:00;19.90;99.90
64951;DHT22;51482;47.014;7.652;2023-07-13T08:31:25;20.10;99.90
64951;DHT22;51482;47.014;7.652;2023-07-13T08:33:51;20.20;99.90
64951;DHT22;51482;47.014;7.652;2023-07-13T08:36:16;20.40;99.90
64951;DHT22;51482;47.014;7.652;2023-07-13T08:38:42;20.50;99.90
64951;DHT22;51482;47.014;7.652;2023-07-13T08:41:13;20.50;99.90
64951;DHT22;51482;47.014;7.652;2023-07-13T08:43:39;20.50;99.90
64951;DHT22;51482;47.014;7.652;2023-07-13T08:46:41;20.70;99.90
64951;DHT22;51482;47.014;7.652;2023-07-13T08:49:15;20.80;99.90
64951;DHT22;51482;47.014;7.652;2023-07-13T08:51:51;20.90;99.90
64951;DHT22;51482;47.014;7.652;2023-07-13T08:54:23;20.90;99.90
64951;DHT22;51482;47.014;7.652;2023-07-13T08:56:51;20.70;99.90
64951;DHT22;51482;47.014;7.652;2023-07-13T08:59:20;20.50;99.90
64951;DHT22;51482;47.014;7.652;2023-07-13T09:02:00;20.60;99.90
64951;DHT22;51482;47.014;7.652;2023-07-13T09:04:36;20.60;99.90
64951;DHT22;51482;47.014;7.652;2023-07-13T09:09:50;20.50;99.90
64951;DHT22;51482;47.014;7.652;2023-07-13T09:12:45;20.50;99.90
64951;DHT22;51482;47.014;7.652;2023-07-13T09:15:28;20.50;99.90
64951;DHT22;51482;47.014;7.652;2023-07-13T09:17:59;20.50;99.90
64951;DHT22;51482;47.014;7.652;2023-07-13T09:20:33;20.50;99.90
64951;DHT22;51482;47.014;7.652;2023-07-13T09:23:01;20.80;99.90
64951;DHT22;51482;47.014;7.652;2023-07-13T09:25:35;20.50;99.90
64951;DHT22;51482;47.014;7.652;2023-07-13T09:28:12;20.50;99.90
64951;DHT22;51482;47.014;7.652;2023-07-13T09:30:49;20.60;99.90
64951;DHT22;51482;47.014;7.652;2023-07-13T09:33:20;20.10;99.90
64951;DHT22;51482;47.014;7.652;2023-07-13T09:35:46;20.60;99.90
64951;DHT22;51482;47.014;7.652;2023-07-13T09:38:14;20.70;99.90
64951;DHT22;51482;47.014;7.652;2023-07-13T09:43:27;20.60;99.90
64951;DHT22;51482;47.014;7.652;2023-07-13T09:45:56;20.60;99.90
64951;DHT22;51482;47.014;7.652;2023-07-13T09:48:21;20.60;99.90
64951;DHT22;51482;47.014;7.652;2023-07-13T09:50:47;20.60;99.90
64951;DHT22;51482;47.014;7.652;2023-07-13T09:53:18;20.50;99.90
64951;DHT22;51482;47.014;7.652;2023-07-13T09:55:46;20.40;99.90
64951;DHT22;51482;47.014;7.652;2023-07-13T09:58:18;20.40;99.90
64951;DHT22;51482;47.014;7.652;2023-07-13T10:00:58;20.40;99.90
64951;DHT22;51482;47.014;7.652;2023-07-13T10:03:27;20.50;99.90
64951;DHT22;51482;47.014;7.652;2023-07-13T10:05:53;20.40;99.90
64951;DHT22;51482;47.014;7.652;2023-07-13T10:08:27;20.20;99.90
64951;DHT22;51482;47.014;7.652;2023-07-13T10:13:42;20.70;99.90
64951;DHT22;51482;47.014;7.652;2023-07-13T10:16:08;20.80;99.90
64951;DHT22;51482;47.014;7.652;2023-07-13T10:18:45;21.60;99.90
64951;DHT22;51482;47.014;7.652;2023-07-13T10:23:39;21.30;99.90
64951;DHT22;51482;47.014;7.652;2023-07-13T10:26:14;21.10;99.90
64951;DHT22;51482;47.014;7.652;2023-07-13T10:28:42;22.30;99.90
64951;DHT22;51482;47.014;7.652;2023-07-13T10:31:12;22.40;99.90
64951;DHT22;51482;47.014;7.652;2023-07-13T10:33:39;22.30;99.90
64951;DHT22;51482;47.014;7.652;2023-07-13T10:36:15;22.50;99.90
64951;DHT22;51482;47.014;7.652;2023-07-13T10:38:43;22.70;99.90
64951;DHT22;51482;47.014;7.652;2023-07-13T10:41:16;22.70;99.90
64951;DHT22;51482;47.014;7.652;2023-07-13T10:43:45;23.00;99.90
64951;DHT22;51482;47.014;7.652;2023-07-13T10:46:17;23.90;99.90
64951;DHT22;51482;47.014;7.652;2023-07-13T10:48:48;23.50;99.90
64951;DHT22;51482;47.014;7.652;2023-07-13T10:51:16;23.90;99.90
64951;DHT22;51482;47.014;7.652;2023-07-13T10:53:42;23.70;99.90
64951;DHT22;51482;47.014;7.652;2023-07-13T10:58:42;24.50;99.90
64951;DHT22;51482;47.014;7.652;2023-07-13T11:01:09;24.60;99.90
64951;DHT22;51482;47.014;7.652;2023-07-13T11:03:46;24.80;99.90
64951;DHT22;51482;47.014;7.652;2023-07-13T11:08:55;25.40;99.90
64951;DHT22;51482;47.014;7.652;2023-07-13T11:24:58;26.80;99.90
64951;DHT22;51482;47.014;7.652;2023-07-13T11:27:45;26.90;99.90
64951;DHT22;51482;47.014;7.652;2023-07-13T11:36:03;27.30;99.90
64951;DHT22;51482;47.014;7.652;2023-07-13T11:38:40;27.30;99.90
64951;DHT22;51482;47.014;7.652;2023-07-13T11:41:19;27.30;99.90
64951;DHT22;51482;47.014;7.652;2023-07-13T11:43:50;27.40;99.90
64951;DHT22;51482;47.014;7.652;2023-07-13T11:46:27;27.60;99.90
64951;DHT22;51482;47.014;7.652;2023-07-13T11:48:54;27.60;99.90
64951;DHT22;51482;47.014;7.652;2023-07-13T11:51:26;27.10;99.90
64951;DHT22;51482;47.014;7.652;2023-07-13T11:53:54;26.50;99.90
64951;DHT22;51482;47.014;7.652;2023-07-13T11:56:22;26.70;99.90
64951;DHT22;51482;47.014;7.652;2023-07-13T11:58:51;26.80;99.90
64951;DHT22;51482;47.014;7.652;2023-07-13T12:01:30;26.80;99.90
64951;DHT22;51482;47.014;7.652;2023-07-13T12:04:00;27.90;99.90
64951;DHT22;51482;47.014;7.652;2023-07-13T12:06:29;27.70;99.90
64951;DHT22;51482;47.014;7.652;2023-07-13T12:08:59;27.80;99.90
64951;DHT22;51482;47.014;7.652;2023-07-13T12:11:26;28.00;99.90
64951;DHT22;51482;47.014;7.652;2023-07-13T12:13:53;28.30;99.90
64951;DHT22;51482;47.014;7.652;2023-07-13T12:16:32;28.70;99.90
64951;DHT22;51482;47.014;7.652;2023-07-13T12:18:59;29.60;99.90
64951;DHT22;51482;47.014;7.652;2023-07-13T12:21:33;28.60;99.00
64951;DHT22;51482;47.014;7.652;2023-07-13T12:24:00;28.50;99.90
64951;DHT22;51482;47.014;7.652;2023-07-13T12:26:31;28.50;99.90
64951;DHT22;51482;47.014;7.652;2023-07-13T12:28:59;28.80;98.50
64951;DHT22;51482;47.014;7.652;2023-07-13T12:31:43;28.90;99.90
64951;DHT22;51482;47.014;7.652;2023-07-13T12:34:13;28.90;98.50
64951;DHT22;51482;47.014;7.652;2023-07-13T12:37:00;29.30;99.90
64951;DHT22;51482;47.014;7.652;2023-07-13T12:39:36;29.30;98.10
64951;DHT22;51482;47.014;7.652;2023-07-13T12:42:28;29.20;96.60
64951;DHT22;51482;47.014;7.652;2023-07-13T12:44:57;29.40;97.60
64951;DHT22;51482;47.014;7.652;2023-07-13T12:47:23;29.60;96.10
64951;DHT22;51482;47.014;7.652;2023-07-13T12:49:58;29.60;97.20
64951;DHT22;51482;47.014;7.652;2023-07-13T12:52:30;29.80;94.50
64951;DHT22;51482;47.014;7.652;2023-07-13T12:54:59;29.90;93.10
64951;DHT22;51482;47.014;7.652;2023-07-13T12:57:25;29.80;92.40
64951;DHT22;51482;47.014;7.652;2023-07-13T12:59:54;29.60;92.10
64951;DHT22;51482;47.014;7.652;2023-07-13T13:02:32;29.70;90.90
64951;DHT22;51482;47.014;7.652;2023-07-13T13:05:01;29.90;90.80
64951;DHT22;51482;47.014;7.652;2023-07-13T13:07:28;29.80;91.50
64951;DHT22;51482;47.014;7.652;2023-07-13T13:09:54;30.00;90.20
64951;DHT22;51482;47.014;7.652;2023-07-13T13:12:22;29.60;88.40
64951;DHT22;51482;47.014;7.652;2023-07-13T13:14:47;29.60;90.40
64951;DHT22;51482;47.014;7.652;2023-07-13T13:17:23;29.40;85.40
64951;DHT22;51482;47.014;7.652;2023-07-13T13:19:52;29.60;88.30
64951;DHT22;51482;47.014;7.652;2023-07-13T13:22:21;29.90;87.90
64951;DHT22;51482;47.014;7.652;2023-07-13T13:24:46;29.80;89.80
64951;DHT22;51482;47.014;7.652;2023-07-13T13:27:16;29.70;85.80
64951;DHT22;51482;47.014;7.652;2023-07-13T13:29:43;29.80;90.00
64951;DHT22;51482;47.014;7.652;2023-07-13T13:32:13;29.50;89.30
64951;DHT22;51482;47.014;7.652;2023-07-13T13:34:39;29.30;84.80
64951;DHT22;51482;47.014;7.652;2023-07-13T13:37:16;28.90;86.80
64951;DHT22;51482;47.014;7.652;2023-07-13T13:39:44;28.60;87.60
64951;DHT22;51482;47.014;7.652;2023-07-13T13:42:10;28.90;90.40
64951;DHT22;51482;47.014;7.652;2023-07-13T13:44:36;29.10;91.60
64951;DHT22;51482;47.014;7.652;2023-07-13T13:47:01;28.90;92.40
64951;DHT22;51482;47.014;7.652;2023-07-13T13:49:29;28.90;91.90
64951;DHT22;51482;47.014;7.652;2023-07-13T13:51:55;29.10;94.20
64951;DHT22;51482;47.014;7.652;2023-07-13T13:54:22;29.50;93.50
64951;DHT22;51482;47.014;7.652;2023-07-13T13:56:50;29.20;93.40
64951;DHT22;51482;47.014;7.652;2023-07-13T13:59:16;29.20;92.30
64951;DHT22;51482;47.014;7.652;2023-07-13T14:01:44;29.50;94.30
64951;DHT22;51482;47.014;7.652;2023-07-13T14:04:20;29.60;90.00
64951;DHT22;51482;47.014;7.652;2023-07-13T14:06:46;29.40;86.80
64951;DHT22;51482;47.014;7.652;2023-07-13T14:09:14;29.70;85.70
64951;DHT22;51482;47.014;7.652;2023-07-13T14:11:40;30.40;86.80
64951;DHT22;51482;47.014;7.652;2023-07-13T14:14:15;29.90;81.10
64951;DHT22;51482;47.014;7.652;2023-07-13T14:16:41;30.10;76.50
64951;DHT22;51482;47.014;7.652;2023-07-13T14:19:11;29.90;74.60
64951;DHT22;51482;47.014;7.652;2023-07-13T14:21:37;29.70;76.00
64951;DHT22;51482;47.014;7.652;2023-07-13T14:24:02;29.80;77.20
64951;DHT22;51482;47.014;7.652;2023-07-13T14:26:30;29.80;79.80
64951;DHT22;51482;47.014;7.652;2023-07-13T14:28:57;30.10;72.80
64951;DHT22;51482;47.014;7.652;2023-07-13T14:31:24;30.10;75.50
64951;DHT22;51482;47.014;7.652;2023-07-13T14:33:50;29.60;79.20
64951;DHT22;51482;47.014;7.652;2023-07-13T14:36:27;29.70;82.80
64951;DHT22;51482;47.014;7.652;2023-07-13T14:38:53;29.70;79.90
64951;DHT22;51482;47.014;7.652;2023-07-13T14:41:19;30.40;81.40
64951;DHT22;51482;47.014;7.652;2023-07-13T14:43:46;30.10;80.90
64951;DHT22;51482;47.014;7.652;2023-07-13T14:46:31;29.30;81.20
64951;DHT22;51482;47.014;7.652;2023-07-13T14:49:02;29.20;80.80
64951;DHT22;51482;47.014;7.652;2023-07-13T14:51:29;29.30;80.10
64951;DHT22;51482;47.014;7.652;2023-07-13T14:53:55;29.20;74.50
64951;DHT22;51482;47.014;7.652;2023-07-13T14:56:20;29.30;76.40
64951;DHT22;51482;47.014;7.652;2023-07-13T14:58:46;29.50;72.80
64951;DHT22;51482;47.014;7.652;2023-07-13T15:01:14;29.70;71.40
64951;DHT22;51482;47.014;7.652;2023-07-13T15:03:46;29.50;73.90
64951;DHT22;51482;47.014;7.652;2023-07-13T15:06:13;30.00;74.10
64951;DHT22;51482;47.014;7.652;2023-07-13T15:08:39;29.80;73.10
64951;DHT22;51482;47.014;7.652;2023-07-13T15:11:07;29.60;74.10
64951;DHT22;51482;47.014;7.652;2023-07-13T15:13:32;29.50;75.80
64951;DHT22;51482;47.014;7.652;2023-07-13T15:15:58;29.50;74.70
64951;DHT22;51482;47.014;7.652;2023-07-13T15:18:25;29.70;73.00
64951;DHT22;51482;47.014;7.652;2023-07-13T15:20:51;29.20;77.90
64951;DHT22;51482;47.014;7.652;2023-07-13T15:23:22;29.00;73.50
64951;DHT22;51482;47.014;7.652;2023-07-13T15:25:48;29.30;74.60
64951;DHT22;51482;47.014;7.652;2023-07-13T15:28:14;29.00;72.10
64951;DHT22;51482;47.014;7.652;2023-07-13T15:30:46;29.40;75.40
64951;DHT22;51482;47.014;7.652;2023-07-13T15:33:22;29.40;72.80
64951;DHT22;51482;47.014;7.652;2023-07-13T15:35:48;30.00;72.50
64951;DHT22;51482;47.014;7.652;2023-07-13T15:38:23;29.60;71.20
64951;DHT22;51482;47.014;7.652;2023-07-13T15:40:49;29.60;73.40
64951;DHT22;51482;47.014;7.652;2023-07-13T15:43:19;29.60;65.30
64951;DHT22;51482;47.014;7.652;2023-07-13T15:45:45;29.80;67.50
64951;DHT22;51482;47.014;7.652;2023-07-13T15:48:23;29.40;69.70
64951;DHT22;51482;47.014;7.652;2023-07-13T15:50:50;29.60;71.00
64951;DHT22;51482;47.014;7.652;2023-07-13T15:53:24;30.10;67.90
64951;DHT22;51482;47.014;7.652;2023-07-13T15:55:50;29.30;69.60
64951;DHT22;51482;47.014;7.652;2023-07-13T15:58:17;28.90;68.40
64951;DHT22;51482;47.014;7.652;2023-07-13T16:00:44;28.40;66.90
64951;DHT22;51482;47.014;7.652;2023-07-13T16:03:10;28.20;69.60
64951;DHT22;51482;47.014;7.652;2023-07-13T16:05:36;28.40;75.80
64951;DHT22;51482;47.014;7.652;2023-07-13T16:08:04;28.40;76.10
64951;DHT22;51482;47.014;7.652;2023-07-13T16:10:33;28.50;77.40
64951;DHT22;51482;47.014;7.652;2023-07-13T16:13:00;29.10;79.00